Time;durP1;ratioP1;P1;durP2;ratioP2;P2;SDS_P1;SDS_P2;PMS_P1;PMS_P2;Temp;Humidity;BMP_temperature;BMP_pressure;BME280_temperature;BME280_humidity;BME280_pressure;Samples;Min_cycle;Max_cycle;Signal;HPM_P1;HPM_P2
2024/01/09 00:00:39;;;;;;;11.53;10.43;;;;;;;4.06;100.00;99551.88;5031983;28;20637;-71
2024/01/09 00:03:07;;;;;;;11.53;10.50;;;;;;;4.06;100.00;99541.38;5032322;28;20197;-71
2024/01/09 00:05:34;;;;;;;12.07;10.97;;;;;;;4.01;100.00;99554.13;5032317;28;20189;-71
2024/01/09 00:08:01;;;;;;;12.57;11.43;;;;;;;4.03;100.00;99546.91;5032260;28;20251;-71
2024/01/09 00:10:28;;;;;;;11.13;10.13;;;;;;;3.95;100.00;99544.22;5032399;28;20197;-71
2024/01/09 00:12:54;;;;;;;11.60;10.50;;;;;;;3.92;100.00;99544.53;5032256;28;20598;-72
2024/01/09 00:15:21;;;;;;;11.97;10.73;;;;;;;3.96;100.00;99551.13;5032139;28;20193;-71
2024/01/09 00:17:48;;;;;;;11.63;10.53;;;;;;;4.02;100.00;99561.03;5031751;28;20638;-71
2024/01/09 00:20:16;;;;;;;11.17;10.10;;;;;;;4.00;100.00;99557.72;5031986;28;20197;-70
2024/01/09 00:22:43;;;;;;;11.07;10.07;;;;;;;4.00;100.00;99563.00;5032057;28;20201;-70
2024/01/09 00:25:10;;;;;;;9.93;8.57;;;;;;;3.97;100.00;99579.03;5031948;28;20194;-71
2024/01/09 00:27:36;;;;;;;11.27;9.67;;;;;;;3.90;100.00;99564.88;5032002;28;20255;-70
2024/01/09 00:30:04;;;;;;;10.23;9.43;;;;;;;3.78;100.00;99568.72;5031997;28;20303;-69
2024/01/09 00:32:31;;;;;;;10.17;9.27;;;;;;;3.70;100.00;99571.28;5031995;28;20243;-69
2024/01/09 00:34:57;;;;;;;9.47;8.73;;;;;;;3.59;100.00;99583.81;5031890;28;20216;-69
2024/01/09 00:37:25;;;;;;;9.27;8.47;;;;;;;3.42;100.00;99588.06;5038703;28;20197;-69
2024/01/09 00:39:52;;;;;;;9.63;8.87;;;;;;;3.43;100.00;99597.59;5051431;28;20204;-68
2024/01/09 00:42:19;;;;;;;10.27;9.47;;;;;;;3.38;100.00;99584.09;5051258;28;20443;-69
2024/01/09 00:44:46;;;;;;;9.53;8.63;;;;;;;3.56;100.00;99584.91;5051737;28;20223;-68
2024/01/09 00:47:13;;;;;;;9.40;8.60;;;;;;;3.59;100.00;99589.06;5051422;28;20686;-68
2024/01/09 00:49:39;;;;;;;10.67;9.70;;;;;;;3.34;100.00;99595.88;5051791;28;20450;-69
2024/01/09 00:52:06;;;;;;;10.10;9.00;;;;;;;3.31;100.00;99606.66;5053489;28;20486;-69
2024/01/09 00:54:34;;;;;;;10.20;9.40;;;;;;;3.35;100.00;99596.69;5055799;28;20262;-68
2024/01/09 00:57:01;;;;;;;10.43;9.53;;;;;;;3.29;100.00;99594.66;5055648;28;20438;-69
2024/01/09 00:59:28;;;;;;;9.40;8.60;;;;;;;3.36;100.00;99598.34;5055343;28;20192;-68
2024/01/09 01:01:54;;;;;;;10.97;9.97;;;;;;;3.43;100.00;99604.66;5055553;28;20531;-69
2024/01/09 01:04:21;;;;;;;10.37;9.37;;;;;;;3.17;100.00;99598.44;5055442;28;20443;-69
2024/01/09 01:06:48;;;;;;;10.20;9.30;;;;;;;3.21;100.00;99605.91;5055168;28;20435;-69
2024/01/09 01:09:14;;;;;;;10.53;9.53;;;;;;;3.25;100.00;99603.78;5055158;28;20434;-68
2024/01/09 01:11:42;;;;;;;9.63;8.83;;;;;;;3.21;100.00;99619.00;5055293;28;20289;-68
2024/01/09 01:14:09;;;;;;;9.93;9.20;;;;;;;2.73;100.00;99615.78;5055447;28;20193;-69
2024/01/09 01:16:36;;;;;;;10.47;9.37;;;;;;;2.74;100.00;99616.63;5055012;28;20835;-68
2024/01/09 01:19:03;;;;;;;10.03;9.23;;;;;;;2.80;100.00;99614.25;5055295;28;20431;-69
2024/01/09 01:21:29;;;;;;;11.33;10.23;;;;;;;2.76;100.00;99615.50;5055148;28;20455;-69
2024/01/09 01:23:56;;;;;;;10.30;9.40;;;;;;;2.82;100.00;99628.03;5054919;28;20451;-69
2024/01/09 01:26:23;;;;;;;10.33;9.53;;;;;;;2.89;100.00;99623.84;5055108;28;20446;-69
2024/01/09 01:28:51;;;;;;;10.40;9.40;;;;;;;2.88;100.00;99640.56;5054734;28;20442;-69
2024/01/09 01:31:17;;;;;;;11.07;10.07;;;;;;;2.76;100.00;99633.84;5054963;28;20434;-70
2024/01/09 01:33:44;;;;;;;9.87;9.07;;;;;;;2.69;100.00;99651.13;5055085;28;20504;-69
2024/01/09 01:36:14;;;;;;;10.67;9.57;;;;;;;2.66;100.00;99651.41;5054563;28;21016;-69
2024/01/09 01:38:41;;;;;;;10.90;9.80;;;;;;;2.61;100.00;99643.13;5037211;28;20463;-69
2024/01/09 01:41:08;;;;;;;11.30;10.30;;;;;;;2.63;100.00;99662.19;5034948;28;20521;-69
2024/01/09 01:43:34;;;;;;;10.73;9.73;;;;;;;2.40;100.00;99660.84;5034633;28;20436;-69
2024/01/09 01:46:03;;;;;;;12.70;11.50;;;;;;;2.32;100.00;99657.28;5034842;28;20498;-69
2024/01/09 01:48:30;;;;;;;14.07;11.53;;;;;;;2.40;100.00;99652.97;5034502;28;20506;-69
2024/01/09 01:50:58;;;;;;;11.60;10.40;;;;;;;2.35;100.00;99652.59;5034400;28;20455;-69
2024/01/09 01:53:25;;;;;;;13.53;12.23;;;;;;;2.32;100.00;99663.34;5034379;28;21079;-68
2024/01/09 01:55:52;;;;;;;11.37;10.37;;;;;;;2.25;100.00;99646.50;5034339;28;20505;-68
2024/01/09 01:58:20;;;;;;;11.77;10.60;;;;;;;2.06;100.00;99641.31;5034373;28;20444;-68
2024/01/09 02:00:47;;;;;;;11.43;10.33;;;;;;;2.14;100.00;99646.69;5034243;28;20538;-70
2024/01/09 02:03:15;;;;;;;14.00;10.10;;;;;;;2.12;100.00;99639.94;5033121;28;20451;-70
2024/01/09 02:05:42;;;;;;;11.33;10.17;;;;;;;2.14;100.00;99625.72;5034313;28;20497;-68
2024/01/09 02:08:10;;;;;;;12.00;10.80;;;;;;;2.17;100.00;99628.03;5034363;28;20522;-69
2024/01/09 02:10:37;;;;;;;10.77;9.77;;;;;;;2.10;100.00;99636.59;5034548;28;20497;-69
2024/01/09 02:13:04;;;;;;;10.00;8.97;;;;;;;2.09;100.00;99627.09;5033981;28;20855;-69
2024/01/09 02:15:30;;;;;;;11.90;10.73;;;;;;;2.09;100.00;99633.19;5034004;28;20947;-69
2024/01/09 02:17:57;;;;;;;11.00;9.90;;;;;;;1.97;100.00;99643.94;5033971;28;20971;-69
2024/01/09 02:20:25;;;;;;;11.70;10.50;;;;;;;1.95;100.00;99649.28;5034166;28;20436;-69
2024/01/09 02:22:52;;;;;;;12.57;11.20;;;;;;;1.97;100.00;99641.31;5034284;28;20497;-69
2024/01/09 02:25:19;;;;;;;11.47;10.30;;;;;;;2.01;100.00;99648.75;5033958;28;20513;-69
2024/01/09 02:27:57;;;;;;;12.60;10.33;;;;;;;1.91;100.00;99649.72;5037155;28;20547;-69
2024/01/09 02:30:25;;;;;;;14.03;12.17;;;;;;;1.76;100.00;99643.25;5054369;28;20479;-69
2024/01/09 02:32:52;;;;;;;14.90;11.87;;;;;;;1.81;100.00;99647.09;5053796;28;20482;-69
2024/01/09 02:35:19;;;;;;;11.77;10.37;;;;;;;1.87;100.00;99651.78;5053848;28;20497;-68
2024/01/09 02:37:46;;;;;;;11.67;10.40;;;;;;;1.85;100.00;99651.09;5053386;28;20862;-69
2024/01/09 02:40:12;;;;;;;12.50;10.93;;;;;;;1.77;100.00;99653.56;5054020;28;20439;-68
2024/01/09 02:42:39;;;;;;;11.93;10.57;;;;;;;1.76;100.00;99628.34;5053368;28;20953;-69
2024/01/09 02:45:06;;;;;;;11.87;10.43;;;;;;;1.65;100.00;99651.22;5053371;28;20504;-68
2024/01/09 02:47:34;;;;;;;15.13;10.37;;;;;;;1.55;100.00;99635.47;5053574;28;20512;-68
2024/01/09 02:50:01;;;;;;;12.23;11.10;;;;;;;1.50;100.00;99627.22;5053121;28;20888;-68
2024/01/09 02:52:27;;;;;;;10.90;10.00;;;;;;;1.57;100.00;99633.56;5053423;28;20493;-69
2024/01/09 02:54:54;;;;;;;11.97;10.77;;;;;;;1.50;100.00;99658.63;5053256;28;20942;-68
2024/01/09 02:57:21;;;;;;;12.33;11.17;;;;;;;1.45;100.00;99680.91;5053425;28;20435;-70
2024/01/09 02:59:48;;;;;;;12.97;11.10;;;;;;;1.38;100.00;99685.06;5053612;28;20438;-70
2024/01/09 03:02:14;;;;;;;12.43;11.23;;;;;;;1.47;100.00;99695.53;5053060;28;20486;-71
2024/01/09 03:04:42;;;;;;;12.53;11.23;;;;;;;1.50;100.00;99687.41;5053444;28;20443;-70
2024/01/09 03:07:09;;;;;;;13.37;10.73;;;;;;;1.54;100.00;99701.88;5053153;28;20431;-70
2024/01/09 03:09:37;;;;;;;13.03;11.73;;;;;;;1.60;100.00;99708.38;5053260;28;20520;-70
2024/01/09 03:12:05;;;;;;;12.27;11.07;;;;;;;1.67;100.00;99702.47;5052741;28;20918;-69
2024/01/09 03:14:31;;;;;;;12.13;10.93;;;;;;;1.66;100.00;99698.19;5052940;28;20497;-69
2024/01/09 03:16:58;;;;;;;12.57;11.07;;;;;;;1.66;100.00;99711.28;5052864;28;20455;-69
2024/01/09 03:19:25;;;;;;;16.13;12.53;;;;;;;1.57;100.00;99717.34;5052699;28;20851;-69
2024/01/09 03:21:53;;;;;;;15.13;11.77;;;;;;;1.63;100.00;99710.75;5053038;28;20496;-70
2024/01/09 03:24:19;;;;;;;13.63;12.30;;;;;;;1.54;100.00;99714.13;5052946;28;20439;-70
2024/01/09 03:26:46;;;;;;;13.90;12.30;;;;;;;1.45;100.00;99721.00;5052488;28;20443;-70
2024/01/09 03:29:13;;;;;;;16.07;12.37;;;;;;;1.38;100.00;99717.25;5052592;28;20870;-70
2024/01/09 03:31:40;;;;;;;15.83;13.13;;;;;;;1.31;100.00;99710.91;5052877;28;21007;-70
2024/01/09 03:34:07;;;;;;;20.13;14.17;;;;;;;1.25;100.00;99706.22;5052838;28;20481;-70
2024/01/09 03:36:33;;;;;;;17.40;13.70;;;;;;;1.19;100.00;99721.59;5052464;28;20446;-70
2024/01/09 03:39:04;;;;;;;17.13;13.60;;;;;;;1.22;100.00;99719.53;5032557;28;20445;-69
2024/01/09 03:41:31;;;;;;;19.63;14.50;;;;;;;1.09;100.00;99726.78;5032835;28;20428;-69
2024/01/09 03:43:58;;;;;;;19.47;15.17;;;;;;;1.21;100.00;99740.59;5032229;28;20454;-70
2024/01/09 03:46:25;;;;;;;17.43;13.37;;;;;;;1.20;100.00;99760.72;5032316;28;20440;-69
2024/01/09 03:48:52;;;;;;;17.00;11.70;;;;;;;1.12;100.00;99778.84;5032562;28;20444;-69
2024/01/09 03:51:18;;;;;;;18.17;13.90;;;;;;;1.04;100.00;99790.91;5032239;28;20447;-69
2024/01/09 03:53:45;;;;;;;18.03;12.83;;;;;;;1.02;100.00;99783.19;5032342;28;20553;-69
2024/01/09 03:56:13;;;;;;;18.70;13.73;;;;;;;0.90;100.00;99781.59;5032170;28;20436;-68
2024/01/09 03:58:40;;;;;;;20.90;15.03;;;;;;;0.93;100.00;99773.50;5032383;28;20435;-69
2024/01/09 04:01:06;;;;;;;16.77;13.70;;;;;;;1.05;100.00;99780.31;5032049;28;20455;-69
2024/01/09 04:03:33;;;;;;;17.73;13.43;;;;;;;1.08;100.00;99780.06;5032216;28;20450;-68
2024/01/09 04:06:00;;;;;;;20.00;13.93;;;;;;;1.03;100.00;99778.78;5032339;28;20440;-68
2024/01/09 04:08:27;;;;;;;18.17;12.73;;;;;;;0.91;100.00;99780.66;5032181;28;20466;-68
2024/01/09 04:10:53;;;;;;;14.13;12.37;;;;;;;0.94;100.00;99788.22;5032444;28;20459;-67
2024/01/09 04:13:22;;;;;;;15.10;12.00;;;;;;;0.69;100.00;99785.19;5032079;28;20481;-66
2024/01/09 04:15:48;;;;;;;15.30;11.40;;;;;;;0.63;100.00;99796.13;5034733;28;20446;-68
2024/01/09 04:18:15;;;;;;;16.13;13.33;;;;;;;0.63;100.00;99803.97;5031837;28;20804;-68
2024/01/09 04:20:42;;;;;;;18.10;13.70;;;;;;;0.64;100.00;99798.63;5048210;28;20431;-68
2024/01/09 04:23:09;;;;;;;18.43;14.00;;;;;;;0.52;100.00;99815.28;5052100;28;20735;-68
2024/01/09 04:25:35;;;;;;;16.47;13.67;;;;;;;0.61;100.00;99809.31;5051877;28;20440;-68
2024/01/09 04:28:02;;;;;;;17.77;12.93;;;;;;;0.58;100.00;99804.34;5051216;28;20456;-68
2024/01/09 04:30:30;;;;;;;18.67;12.93;;;;;;;0.65;100.00;99810.72;5045179;28;20470;-68
2024/01/09 04:32:57;;;;;;;18.70;14.63;;;;;;;0.55;100.00;99819.44;5050085;28;20474;-69
2024/01/09 04:35:24;;;;;;;16.23;13.53;;;;;;;0.49;100.00;99820.75;5051468;28;20473;-69
2024/01/09 04:37:50;;;;;;;19.67;13.43;;;;;;;0.48;100.00;99824.34;5040822;28;20509;-64
2024/01/09 04:40:17;;;;;;;18.90;13.27;;;;;;;0.55;100.00;99830.72;5031747;28;20448;-63
2024/01/09 04:42:44;;;;;;;18.37;12.87;;;;;;;0.49;100.00;99830.41;5031127;28;20973;-65
2024/01/09 04:45:10;;;;;;;18.97;14.10;;;;;;;0.51;100.00;99846.78;5042146;28;20443;-65
2024/01/09 04:47:38;;;;;;;18.97;14.53;;;;;;;0.34;100.00;99847.31;5048145;28;20823;-64
2024/01/09 04:50:06;;;;;;;19.93;14.13;;;;;;;0.16;100.00;99870.50;5047959;28;20500;-66
2024/01/09 04:52:32;;;;;;;22.97;14.40;;;;;;;0.22;100.00;99858.72;5050357;28;20473;-64
2024/01/09 04:54:59;;;;;;;16.00;12.60;;;;;;;0.09;100.00;99843.22;5048649;28;20451;-65
2024/01/09 04:57:26;;;;;;;19.07;13.60;;;;;;;0.18;100.00;99852.94;5041141;28;20439;-63
2024/01/09 04:59:52;;;;;;;16.53;11.97;;;;;;;0.14;100.00;99859.34;5042239;28;20431;-63
2024/01/09 05:02:19;;;;;;;20.63;13.63;;;;;;;0.21;100.00;99868.38;5041963;28;20459;-63
2024/01/09 05:04:47;;;;;;;19.70;12.80;;;;;;;0.10;100.00;99873.59;5040830;28;20507;-64
2024/01/09 05:07:14;;;;;;;23.30;13.97;;;;;;;0.11;100.00;99882.28;5040285;28;20515;-64
2024/01/09 05:09:41;;;;;;;22.23;13.80;;;;;;;-0.02;100.00;99870.19;5039895;28;20500;-64
2024/01/09 05:12:08;;;;;;;17.43;12.97;;;;;;;0.01;100.00;99869.09;5041070;28;20965;-63
2024/01/09 05:14:34;;;;;;;20.40;13.93;;;;;;;-0.18;100.00;99897.59;5041379;28;21060;-64
2024/01/09 05:17:01;;;;;;;17.13;13.50;;;;;;;0.00;100.00;99893.56;5041801;28;20485;-65
2024/01/09 05:19:28;;;;;;;16.50;12.23;;;;;;;-0.20;100.00;99913.38;5049937;28;20451;-65
2024/01/09 05:21:56;;;;;;;19.40;14.83;;;;;;;-0.11;100.00;99906.63;5041424;28;20851;-65
2024/01/09 05:24:22;;;;;;;22.30;13.57;;;;;;;-0.15;100.00;99902.56;5043239;28;20435;-65
2024/01/09 05:26:49;;;;;;;13.37;11.67;;;;;;;-0.35;100.00;99916.31;5043882;28;20896;-64
2024/01/09 05:29:16;;;;;;;21.73;13.57;;;;;;;-0.35;100.00;99892.84;5041339;28;20601;-65
2024/01/09 05:31:43;;;;;;;21.77;15.73;;;;;;;-0.27;100.00;99908.75;5050492;28;20506;-64
2024/01/09 05:34:10;;;;;;;28.93;15.03;;;;;;;-0.21;100.00;99903.03;5050611;28;21055;-64
2024/01/09 05:36:37;;;;;;;21.73;15.27;;;;;;;-0.26;100.00;99907.78;5050791;28;20443;-65
2024/01/09 05:39:05;;;;;;;24.40;17.40;;;;;;;-0.22;100.00;99902.22;5047928;28;20451;-64
2024/01/09 05:41:31;;;;;;;24.43;15.73;;;;;;;-0.14;100.00;99894.63;5063662;28;20446;-65
2024/01/09 05:43:58;;;;;;;23.97;15.70;;;;;;;-0.09;100.00;99920.34;5058094;28;20443;-66
2024/01/09 05:46:25;;;;;;;25.57;17.53;;;;;;;-0.11;100.00;99919.66;5058337;28;20434;-66
2024/01/09 05:48:52;;;;;;;25.67;19.03;;;;;;;-0.06;100.00;99912.31;5065485;28;20450;-65
2024/01/09 05:51:18;;;;;;;33.63;22.20;;;;;;;-0.14;100.00;99914.66;5050425;28;20946;-66
2024/01/09 05:53:47;;;;;;;58.87;31.70;;;;;;;-0.10;100.00;99908.25;5053697;28;20528;-66
2024/01/09 05:56:15;;;;;;;65.30;33.40;;;;;;;-0.13;100.00;99921.53;5058894;28;20474;-66
2024/01/09 05:58:41;;;;;;;36.50;20.77;;;;;;;-0.31;100.00;99944.69;5074530;28;20491;-64
2024/01/09 06:01:08;;;;;;;27.07;17.90;;;;;;;-0.19;100.00;99937.69;5058518;28;20451;-65
2024/01/09 06:03:35;;;;;;;34.70;23.20;;;;;;;-0.04;100.00;99946.97;5054138;28;20454;-64
2024/01/09 06:06:02;;;;;;;29.27;19.03;;;;;;;-0.18;100.00;99934.97;5047513;28;20811;-63
2024/01/09 06:08:28;;;;;;;28.83;17.90;;;;;;;-0.16;100.00;99955.75;5059868;28;20507;-66
2024/01/09 06:10:55;;;;;;;24.93;17.83;;;;;;;-0.11;100.00;99966.66;5057277;28;20446;-64
2024/01/09 06:13:23;;;;;;;25.57;17.37;;;;;;;-0.05;100.00;99960.94;5060557;28;20481;-64
2024/01/09 06:15:50;;;;;;;33.87;21.03;;;;;;;-0.11;100.00;99966.66;5054267;28;21047;-64
2024/01/09 06:18:17;;;;;;;38.73;22.83;;;;;;;-0.08;100.00;99975.06;5055220;28;20458;-64
2024/01/09 06:20:43;;;;;;;34.77;21.13;;;;;;;-0.08;100.00;99976.88;5054456;28;20461;-63
2024/01/09 06:23:11;;;;;;;32.07;20.67;;;;;;;-0.07;100.00;99988.97;5054789;28;20543;-65
2024/01/09 06:25:38;;;;;;;37.73;22.47;;;;;;;-0.23;100.00;99983.25;5055228;28;20454;-64
2024/01/09 06:28:05;;;;;;;39.97;24.07;;;;;;;-0.17;100.00;99980.16;5056955;28;20448;-65
2024/01/09 06:30:34;;;;;;;44.00;27.67;;;;;;;-0.02;100.00;99989.44;5054613;28;20471;-65
2024/01/09 06:33:00;;;;;;;158.70;56.90;;;;;;;0.03;100.00;99987.28;5054054;28;20446;-64
2024/01/09 06:35:27;;;;;;;75.10;39.20;;;;;;;0.16;100.00;99988.00;5054379;28;20503;-64
2024/01/09 06:37:54;;;;;;;76.07;41.87;;;;;;;0.24;100.00;99997.88;5053244;28;20939;-64
2024/01/09 06:40:23;;;;;;;53.10;30.13;;;;;;;0.25;100.00;100004.75;5051887;28;20463;-64
2024/01/09 06:42:50;;;;;;;29.90;19.23;;;;;;;0.44;100.00;100003.22;5046964;28;20542;-65
2024/01/09 06:45:17;;;;;;;26.20;18.53;;;;;;;0.23;100.00;100012.72;5054022;28;20484;-66
2024/01/09 06:47:45;;;;;;;43.00;24.17;;;;;;;0.17;100.00;100012.34;5055970;28;20509;-66
2024/01/09 06:50:12;;;;;;;36.87;24.30;;;;;;;0.26;100.00;100009.88;5053925;28;20870;-65
2024/01/09 06:52:39;;;;;;;27.73;19.57;;;;;;;0.35;100.00;100017.00;5054355;28;20817;-65
2024/01/09 06:55:06;;;;;;;45.43;25.00;;;;;;;0.29;99.52;100027.94;5054115;28;20577;-65
2024/01/09 06:57:33;;;;;;;40.00;22.17;;;;;;;0.17;99.88;100028.88;5053507;28;20504;-64
2024/01/09 06:59:59;;;;;;;29.77;19.57;;;;;;;0.27;100.00;100044.63;5054250;28;20504;-65
2024/01/09 07:02:26;;;;;;;66.53;32.87;;;;;;;0.29;100.00;100054.06;5054193;28;20870;-68
2024/01/09 07:04:54;;;;;;;28.37;17.50;;;;;;;0.44;99.18;100063.31;5051185;28;20533;-65
2024/01/09 07:07:21;;;;;;;45.47;24.43;;;;;;;0.95;100.00;100055.78;5049975;28;20505;-64
2024/01/09 07:09:48;;;;;;;98.00;44.33;;;;;;;0.93;100.00;100050.66;5049557;28;20496;-65
2024/01/09 07:12:16;;;;;;;50.70;24.03;;;;;;;0.78;98.97;100062.34;5058392;28;20457;-65
2024/01/09 07:14:43;;;;;;;52.83;26.73;;;;;;;0.68;96.91;100055.31;5060635;28;20480;-66
2024/01/09 07:17:11;;;;;;;24.57;17.23;;;;;;;0.79;97.51;100058.78;5052482;28;20532;-65
2024/01/09 07:19:38;;;;;;;33.13;22.10;;;;;;;0.61;96.72;100065.44;5052464;28;20497;-66
2024/01/09 07:22:06;;;;;;;37.93;23.37;;;;;;;0.55;97.06;100070.31;5035192;28;20439;-66
2024/01/09 07:24:33;;;;;;;26.67;16.07;;;;;;;0.45;97.39;100078.03;5051583;28;21027;-64
2024/01/09 07:26:59;;;;;;;33.93;19.67;;;;;;;0.49;97.65;100081.25;5051386;28;20448;-66
2024/01/09 07:29:26;;;;;;;23.73;16.03;;;;;;;0.54;97.28;100079.94;5071862;28;20466;-66
2024/01/09 07:31:53;;;;;;;26.50;17.53;;;;;;;0.62;96.68;100097.63;5057487;28;21292;-63
2024/01/09 07:34:19;;;;;;;23.73;15.20;;;;;;;0.64;96.26;100101.78;5051964;28;20479;-65
2024/01/09 07:36:46;;;;;;;19.67;14.90;;;;;;;0.67;95.39;100106.78;5050412;28;20439;-64
2024/01/09 07:39:14;;;;;;;24.87;15.03;;;;;;;0.75;95.50;100109.66;5071764;28;20442;-65
2024/01/09 07:41:41;;;;;;;17.60;13.03;;;;;;;0.76;94.27;100121.75;5071799;28;20460;-66
2024/01/09 07:44:08;;;;;;;24.83;16.63;;;;;;;0.79;93.63;100121.53;5067511;28;20449;-67
2024/01/09 07:46:34;;;;;;;20.73;15.17;;;;;;;0.75;92.85;100114.88;5071346;28;20450;-66
2024/01/09 07:49:01;;;;;;;28.03;16.80;;;;;;;0.71;91.42;100116.06;5053887;28;20892;-66
2024/01/09 07:51:28;;;;;;;26.23;16.77;;;;;;;0.80;91.85;100122.34;5057736;28;20863;-66
2024/01/09 07:53:54;;;;;;;23.43;16.10;;;;;;;0.84;91.30;100137.69;5051646;28;20881;-66
2024/01/09 07:56:23;;;;;;;21.80;15.50;;;;;;;0.80;90.73;100146.72;5051876;28;20439;-68
2024/01/09 07:58:49;;;;;;;23.03;16.60;;;;;;;0.87;91.19;100145.31;5051616;28;20521;-67
2024/01/09 08:01:17;;;;;;;21.07;14.97;;;;;;;0.89;90.73;100143.38;5050619;28;20443;-68
2024/01/09 08:03:44;;;;;;;17.03;13.47;;;;;;;1.00;89.93;100146.00;5051712;28;20454;-67
2024/01/09 08:06:13;;;;;;;20.77;15.43;;;;;;;0.98;89.32;100158.34;5051540;28;20524;-67
2024/01/09 08:08:40;;;;;;;18.50;14.37;;;;;;;0.90;89.78;100149.47;5051679;28;20509;-68
2024/01/09 08:11:07;;;;;;;46.57;25.80;;;;;;;0.75;88.54;100161.94;5050748;28;20442;-67
2024/01/09 08:13:35;;;;;;;29.23;18.80;;;;;;;0.91;88.78;100157.19;5055264;28;20800;-67
2024/01/09 08:16:02;;;;;;;34.47;23.43;;;;;;;0.98;87.99;100160.97;5056276;28;20490;-67
2024/01/09 08:18:29;;;;;;;17.63;12.40;;;;;;;0.96;87.27;100165.50;5048876;28;20445;-68
2024/01/09 08:20:56;;;;;;;34.17;19.13;;;;;;;0.95;87.36;100158.59;5050034;28;20447;-69
2024/01/09 08:23:23;;;;;;;19.47;13.97;;;;;;;0.87;87.19;100170.59;5053423;28;20446;-67
2024/01/09 08:25:50;;;;;;;17.97;12.60;;;;;;;0.74;86.85;100170.72;5053784;28;20443;-66
2024/01/09 08:28:17;;;;;;;23.43;16.80;;;;;;;0.57;87.86;100168.53;5054628;28;20934;-67
2024/01/09 08:30:45;;;;;;;22.10;15.23;;;;;;;0.55;88.98;100174.84;5050523;28;20524;-66
2024/01/09 08:33:12;;;;;;;38.00;26.60;;;;;;;0.56;88.06;100161.66;5050035;28;20447;-67
2024/01/09 08:35:39;;;;;;;20.23;14.33;;;;;;;0.49;88.89;100164.88;5043859;28;20553;-66
2024/01/09 08:38:06;;;;;;;21.87;13.87;;;;;;;0.57;89.15;100178.19;5049702;28;21015;-66
2024/01/09 08:40:33;;;;;;;16.60;11.90;;;;;;;0.72;88.85;100184.84;5051025;28;20444;-66
2024/01/09 08:43:00;;;;;;;17.27;12.67;;;;;;;0.53;88.02;100208.94;5056400;28;20949;-65
2024/01/09 08:45:26;;;;;;;22.00;14.97;;;;;;;0.51;86.96;100215.22;5056475;28;20827;-64
2024/01/09 08:47:54;;;;;;;16.93;12.63;;;;;;;0.24;87.13;100232.97;5061839;28;20941;-66
2024/01/09 08:50:21;;;;;;;17.87;13.30;;;;;;;0.33;87.44;100214.84;5050831;28;20443;-66
2024/01/09 08:52:48;;;;;;;20.47;14.93;;;;;;;0.33;87.02;100224.44;5043925;28;20954;-67
2024/01/09 08:55:15;;;;;;;19.20;12.93;;;;;;;0.30;86.88;100217.66;5046645;28;20540;-66
2024/01/09 08:57:42;;;;;;;16.87;13.30;;;;;;;0.40;88.63;100202.97;5046057;28;20469;-66
2024/01/09 09:00:10;;;;;;;20.70;13.03;;;;;;;1.26;100.00;100165.72;5053512;28;20445;-67
2024/01/09 09:02:36;;;;;;;21.73;14.80;;;;;;;1.81;100.00;100170.81;5050611;28;20516;-67
2024/01/09 09:05:06;;;;;;;19.00;12.23;;;;;;;1.39;90.85;100196.97;5047482;28;21023;-67
2024/01/09 09:07:32;;;;;;;13.33;11.20;;;;;;;1.24;87.85;100206.03;5048061;28;20445;-67
2024/01/09 09:09:59;;;;;;;21.27;13.07;;;;;;;1.13;86.40;100214.72;5049857;28;21029;-67
2024/01/09 09:12:28;;;;;;;13.80;11.07;;;;;;;1.08;84.57;100222.09;5049753;28;20550;-65
2024/01/09 09:14:55;;;;;;;12.30;10.87;;;;;;;1.01;84.88;100209.63;5050313;28;20569;-67
2024/01/09 09:17:21;;;;;;;13.63;10.83;;;;;;;1.03;84.73;100192.00;5054411;28;20439;-66
2024/01/09 09:19:48;;;;;;;18.83;12.77;;;;;;;1.01;84.39;100199.97;5053847;28;20976;-66
2024/01/09 09:22:16;;;;;;;25.63;17.33;;;;;;;0.68;84.90;100194.72;5053969;28;20512;-66
2024/01/09 09:24:43;;;;;;;20.20;15.17;;;;;;;0.58;86.38;100185.91;5054818;28;20447;-67
2024/01/09 09:27:10;;;;;;;23.27;15.57;;;;;;;0.64;85.36;100195.91;5047651;28;20513;-67
2024/01/09 09:29:36;;;;;;;20.27;13.37;;;;;;;0.50;86.76;100198.72;5054495;28;20536;-66
2024/01/09 09:32:03;;;;;;;21.03;15.00;;;;;;;0.46;86.19;100210.34;5054046;28;20533;-66
2024/01/09 09:34:30;;;;;;;21.40;16.07;;;;;;;0.36;85.53;100209.38;5051106;28;20483;-65
2024/01/09 09:36:57;;;;;;;20.83;15.40;;;;;;;0.36;86.20;100201.53;5046486;28;20441;-66
2024/01/09 09:39:26;;;;;;;19.77;14.70;;;;;;;0.34;86.09;100207.81;5044677;28;20444;-66
2024/01/09 09:41:56;;;;;;;21.10;14.07;;;;;;;0.41;85.86;100201.19;5042796;28;20522;-67
2024/01/09 09:44:23;;;;;;;18.67;13.37;;;;;;;0.27;85.97;100201.38;5045855;28;20549;-66
2024/01/09 09:46:51;;;;;;;20.37;13.73;;;;;;;0.37;86.78;100200.59;5047915;28;20447;-67
2024/01/09 09:49:18;;;;;;;12.97;10.80;;;;;;;0.49;86.30;100201.44;5049119;28;20572;-67
2024/01/09 09:51:46;;;;;;;16.23;12.67;;;;;;;0.59;86.31;100212.88;5048793;28;20500;-66
2024/01/09 09:54:15;;;;;;;20.97;13.30;;;;;;;0.57;86.60;100204.31;5044071;28;20524;-66
2024/01/09 09:56:45;;;;;;;14.23;11.37;;;;;;;0.63;85.67;100217.75;5047696;28;20449;-67
2024/01/09 09:59:12;;;;;;;18.50;12.73;;;;;;;0.35;86.58;100214.69;5053733;28;20454;-67
2024/01/09 10:01:39;;;;;;;13.63;10.67;;;;;;;0.41;86.90;100199.44;5053373;28;20485;-67
2024/01/09 10:04:20;;;;;;;13.73;10.07;;;;;;;0.29;86.69;100212.56;5053571;28;20450;-68
2024/01/09 10:06:49;;;;;;;13.17;9.57;;;;;;;0.26;85.42;100200.56;5053307;28;20500;-67
2024/01/09 10:09:16;;;;;;;13.53;10.63;;;;;;;0.35;85.86;100219.91;5053561;28;20938;-67
2024/01/09 10:11:49;;;;;;;14.37;10.90;;;;;;;0.43;84.37;100228.88;5060658;28;20592;-68
2024/01/09 10:14:15;;;;;;;13.27;11.40;;;;;;;0.26;84.51;100225.84;5043466;28;20431;-69
2024/01/09 10:16:50;;;;;;;12.73;10.93;;;;;;;0.25;84.06;100224.19;5053246;28;20497;-67
2024/01/09 10:19:17;;;;;;;14.03;11.40;;;;;;;0.22;84.49;100225.25;5053742;28;20430;-69
2024/01/09 10:21:44;;;;;;;14.00;10.70;;;;;;;0.18;85.17;100229.03;5040963;28;20876;-69
2024/01/09 10:24:11;;;;;;;13.23;10.23;;;;;;;0.18;84.90;100234.25;5052028;28;20457;-68
2024/01/09 10:26:37;;;;;;;13.17;11.30;;;;;;;0.10;84.70;100228.75;5049770;28;20451;-68
2024/01/09 10:29:05;;;;;;;12.67;10.13;;;;;;;0.13;85.20;100231.16;5052683;28;20475;-69
2024/01/09 10:31:32;;;;;;;13.53;11.17;;;;;;;0.25;85.64;100230.25;5052898;28;20826;-67
2024/01/09 10:33:59;;;;;;;14.00;10.93;;;;;;;0.20;86.01;100227.13;5052414;28;20443;-69
2024/01/09 10:36:27;;;;;;;16.90;11.20;;;;;;;0.21;84.76;100228.81;5052130;28;20848;-69
2024/01/09 10:39:03;;;;;;;10.33;9.33;;;;;;;0.08;84.76;100238.47;5038850;28;20596;-69
2024/01/09 10:41:30;;;;;;;15.53;9.77;;;;;;;-0.09;85.82;100226.66;5053015;28;20499;-68
2024/01/09 10:43:57;;;;;;;15.67;10.50;;;;;;;-0.11;85.54;100206.81;5051870;28;20443;-69
2024/01/09 10:46:27;;;;;;;14.33;11.07;;;;;;;0.01;85.58;100235.47;5051848;28;20910;-70
2024/01/09 10:48:54;;;;;;;158.30;74.07;;;;;;;0.96;97.75;100207.34;5069483;28;20503;-66
2024/01/09 10:51:24;;;;;;;22.37;15.87;;;;;;;2.83;100.00;100225.13;5066151;28;20946;-69
2024/01/09 10:53:51;;;;;;;12.37;10.27;;;;;;;2.19;89.56;100236.66;5052249;28;20447;-68
2024/01/09 10:56:21;;;;;;;13.03;10.27;;;;;;;1.83;82.55;100252.69;5052640;28;20470;-69
2024/01/09 10:58:49;;;;;;;11.17;9.33;;;;;;;1.58;81.54;100260.00;5047153;28;20513;-68
2024/01/09 11:01:16;;;;;;;11.10;9.13;;;;;;;1.14;80.68;100258.22;5053146;28;20528;-73
2024/01/09 11:03:45;;;;;;;9.93;8.93;;;;;;;0.53;81.50;100263.81;5051373;28;20905;-69
2024/01/09 11:06:15;;;;;;;15.97;11.77;;;;;;;0.59;82.01;100250.31;5052257;28;20531;-70
2024/01/09 11:08:46;;;;;;;13.10;10.73;;;;;;;0.48;83.53;100258.09;5052229;28;20866;-71
2024/01/09 11:11:16;;;;;;;14.43;9.13;;;;;;;0.55;82.63;100259.31;5054375;28;20443;-70
2024/01/09 11:13:47;;;;;;;16.77;11.43;;;;;;;0.50;83.63;100265.81;5072209;28;20487;-69
2024/01/09 11:16:16;;;;;;;15.13;11.90;;;;;;;0.45;83.06;100257.50;5054615;28;20464;-69